Архив погоды в Выксе

Метеограмма Выкса
Пятница, 22 Июня
Время местн. Темп Ветер Видим Явления Облачность нижн/средн/верх Атм. давл. Влжн Точка росы ВНГО R Сост. почвы Tg s
Напр Скр Прв ур.ст ур.м изм
21:00 +20.7° Ю 1 6 10 км - переменная облачность 749 759 -0.2 61% +12.8° более 2.5 км - - - -
18:00 +27.7° Ю-З 2 10 10 км - переменная облачность 749 759 -0.8 33% +9.8° 1 км 0 - - -
15:00 +26.8° Ю-З 3 10 10 км - облачно с прояснениями 750 760 -0.8 37% +11° 1.5 км - - - -
12:00 +25.3° З,С-З 3 5 10 км - переменная облачность 751 761 0 44% +12.3° 1.5 км - - - -
09:00 +22° З,Ю-З 2 4 10 км - ясно 751 761 -0.4 51% +11.4° более 2.5 км - - - -
06:00 +14.9° Ю 1 2 10 км - ясно 751 761 +0.4 77% +11° более 2.5 км - Сухая (без трещин) - -
03:00 +9.9° З,С-З 1 1 10 км - переменная облачность 751 761 +0.8 93% +8.9° более 2.5 км - - - -
00:00 +14.1° З 2 2 10 км - переменная облачность 750 760 +1.4 75% +9.7° более 2.5 км - - - -
Четверг, 21 Июня
Время местн. Темп Ветер Видим Явления Облачность нижн/средн/верх Атм. давл. Влжн Точка росы ВНГО R Сост. почвы Tg s
Напр Скр Прв ур.ст ур.м изм
21:00 +16.6° С-З 2 2 10 км - переменная облачность 749 763 +0.9 64% +9.8° более 2.5 км - - - -
18:00 +21.4° З,С-З 7 11 10 км - переменная облачность 748 758 0 43% +8.2° 1 км - - - -
15:00 +21° З,С-З 6 10 10 км - преимущественно облачно 748 758 -0.2 40% +7° 1 км - - - -
12:00 +21.8° З,С-З 8 13 10 км - переменная облачность 748 758 -1.1 32% +4.5° 1.5 км - - - -
09:00 +19.3° З,С-З 5 9 10 км - облачно с прояснениями 749 759 +0.8 47% +7.8° более 2.5 км - - - -
06:00 +14.1° З,С-З 4 7 10 км - ясно 748 758 +0.5 60% +6.4° более 2.5 км - Сухая (без трещин) - -
03:00 +12.9° З 3 5 10 км - ясно 748 758 +0.5 59% +5.1° более 2.5 км - - - -
00:00 +14.1° С-З 3 10 10 км - ясно 747 757 +1.1 54% +5° более 2.5 км - - - -
Среда, 20 Июня
Время местн. Темп Ветер Видим Явления Облачность нижн/средн/верх Атм. давл. Влжн Точка росы ВНГО R Сост. почвы Tg s
Напр Скр Прв ур.ст ур.м изм
21:00 +18° З 3 10 10 км - переменная облачность 746 756 0 40% +4.3° 1.5 км - - - -
18:00 +21.4° З,С-З 5 11 10 км - переменная облачность 746 756 -0.1 30% +2.9° 1.5 км 0 - - -
15:00 +22.5° С-З 6 14 10 км - переменная облачность 746 756 +0.8 30% +4.1° 1.5 км - - - -
12:00 +20.9° С-З 7 13 10 км - переменная облачность 745 755 +0.5 37% +5.5° 1.5 км - - - -
09:00 +19.4° С-З 5 10 10 км небо без изменений {дождь} облачно с прояснениями 745 755 -0.2 65% +12.6° 1 км - - - -
06:00 +18° З 3 5 10 км небо без изменений {дождь} облачно 745 755 -0.9 77% +14° более 2.5 км 0 Влажная (без луж) +17° -
03:00 +18.1° Ю-З 2 4 10 км - облачно 746 756 -1.4 75% +13.5° - - - - -
00:00 +19.6° З 2 4 10 км - облачно 747 757 -0.8 64% +12.7° - - - - -
Вторник, 19 Июня
Время местн. Темп Ветер Видим Явления Облачность нижн/средн/верх Атм. давл. Влжн Точка росы ВНГО R Сост. почвы Tg s
Напр Скр Прв ур.ст ур.м изм
21:00 +21.9° З,Ю-З 2 4 10 км - облачно 748 758 -0.1 61% +14° - - - - -
18:00 +27° З,С-З 3 5 10 км - облачно 748 758 -1.2 39% +12° - - - - -